Time;durP1;ratioP1;P1;durP2;ratioP2;P2;SDS_P1;SDS_P2;PMS_P1;PMS_P2;Temp;Humidity;BMP_temperature;BMP_pressure;BME280_temperature;BME280_humidity;BME280_pressure;Samples;Min_cycle;Max_cycle;Signal;HPM_P1;HPM_P2
2023/07/03 00:02:08;;;;;;;5.60;5.00;;;;;;;20.19;48.78;99290.44;4910998;29;20469;-82
2023/07/03 00:04:35;;;;;;;6.73;4.67;;;;;;;20.22;48.97;99285.59;4908266;29;20329;-80
2023/07/03 00:07:02;;;;;;;7.60;5.60;;;;;;;20.23;48.89;99281.94;4909330;29;20499;-81
2023/07/03 00:09:28;;;;;;;8.40;5.60;;;;;;;20.27;48.76;99285.94;4908870;29;20621;-81
2023/07/03 00:11:53;;;;;;;5.77;4.60;;;;;;;20.30;48.47;99288.25;4906375;29;21157;-81
2023/07/03 00:14:19;;;;;;;9.07;4.53;;;;;;;20.30;48.34;99279.44;4906009;29;21331;-82
2023/07/03 00:16:45;;;;;;;6.30;4.93;;;;;;;20.30;48.34;99288.25;4906354;29;20232;-81
2023/07/03 00:19:13;;;;;;;9.13;5.77;;;;;;;20.31;48.38;99281.94;4890723;29;20460;-81
2023/07/03 00:21:43;;;;;;;9.30;5.23;;;;;;;20.30;48.16;99290.09;4911071;29;20239;-81
2023/07/03 00:24:10;;;;;;;8.60;5.30;;;;;;;20.30;48.05;99288.25;4908529;29;20901;-80
2023/07/03 00:26:36;;;;;;;9.80;5.57;;;;;;;20.32;48.14;99288.09;4872027;29;1072016;-81
2023/07/03 00:29:01;;;;;;;7.40;4.87;;;;;;;20.32;48.12;99280.94;4910215;29;20487;-81
2023/07/03 00:31:29;;;;;;;6.93;5.37;;;;;;;20.32;48.11;99280.94;4909936;29;20227;-81
2023/07/03 00:33:54;;;;;;;10.17;5.50;;;;;;;20.32;48.15;99288.09;4910143;29;20475;-81
2023/07/03 00:36:20;;;;;;;8.90;5.10;;;;;;;20.32;48.38;99280.09;4891617;29;21046;-81
2023/07/03 00:38:45;;;;;;;7.50;5.30;;;;;;;20.33;48.54;99289.75;4912321;29;20222;-80
2023/07/03 00:41:11;;;;;;;7.57;4.60;;;;;;;20.32;48.52;99288.94;4908484;29;20247;-80
2023/07/03 00:43:40;;;;;;;7.50;5.03;;;;;;;20.28;48.90;99289.44;4894781;29;20227;-81
2023/07/03 00:46:11;;;;;;;7.30;4.80;;;;;;;20.22;49.19;99295.44;4910969;29;20239;-80
2023/07/03 00:48:39;;;;;;;7.43;5.13;;;;;;;20.12;49.82;99290.28;4909095;29;20472;-81
2023/07/03 00:51:04;;;;;;;9.30;5.33;;;;;;;20.03;50.12;99280.59;4910978;29;20565;-80
2023/07/03 00:53:30;;;;;;;5.03;4.10;;;;;;;19.95;50.65;99283.28;4909042;29;21063;-80
2023/07/03 00:55:56;;;;;;;9.37;5.40;;;;;;;19.87;50.91;99279.63;4906288;29;20300;-80
2023/07/03 00:58:22;;;;;;;11.00;5.40;;;;;;;19.81;51.00;99284.75;4911620;29;20226;-80
2023/07/03 01:00:55;;;;;;;7.90;5.00;;;;;;;19.78;51.30;99285.09;4895853;29;20605;-81
2023/07/03 01:03:32;;;;;;;8.33;5.77;;;;;;;19.75;51.36;99280.94;4907193;29;20326;-80
2023/07/03 01:06:01;;;;;;;15.20;7.13;;;;;;;19.74;51.19;99279.28;4897052;29;20482;-81
2023/07/03 01:08:26;;;;;;;5.93;4.40;;;;;;;19.74;51.28;99276.59;4909196;29;20484;-81
2023/07/03 01:10:54;;;;;;;6.93;5.10;;;;;;;19.75;51.16;99280.09;4909673;29;20497;-80
2023/07/03 01:13:21;;;;;;;9.27;5.90;;;;;;;19.77;51.06;99280.78;4895092;29;20784;-81
2023/07/03 01:15:47;;;;;;;8.60;5.23;;;;;;;19.80;50.86;99281.28;4905145;29;20511;-80
2023/07/03 01:18:15;;;;;;;10.43;4.73;;;;;;;19.85;50.81;99283.44;4900428;29;20529;-81
2023/07/03 01:20:58;;;;;;;6.97;5.63;;;;;;;19.88;50.52;99286.59;4906222;29;20529;-81
2023/07/03 01:23:33;;;;;;;10.30;5.90;;;;;;;19.93;50.46;99286.13;4894440;29;20480;-82
2023/07/03 01:26:02;;;;;;;8.73;6.00;;;;;;;19.95;50.49;99284.09;4906118;29;20500;-82
2023/07/03 01:28:30;;;;;;;6.73;5.63;;;;;;;19.97;50.44;99287.44;4967573;23;20532;-76
2023/07/03 01:31:00;;;;;;;8.13;5.07;;;;;;;19.99;50.15;99282.78;4932158;28;20493;-76
2023/07/03 01:33:33;;;;;;;7.87;5.47;;;;;;;20.01;50.29;99286.13;4948466;28;20463;-76
2023/07/03 01:35:59;;;;;;;10.73;7.13;;;;;;;20.05;50.49;99294.63;4942570;28;20483;-76
2023/07/03 01:38:25;;;;;;;6.20;5.17;;;;;;;20.05;50.66;99284.78;4948613;28;20231;-76
2023/07/03 01:40:53;;;;;;;10.50;6.07;;;;;;;20.06;50.57;99289.13;4949257;28;20801;-76
2023/07/03 01:43:20;;;;;;;10.67;6.57;;;;;;;20.07;50.59;99282.78;4926512;28;20467;-76
2023/07/03 01:45:48;;;;;;;8.50;5.63;;;;;;;20.11;50.46;99283.28;4943394;28;20875;-76
2023/07/03 01:48:14;;;;;;;7.87;5.77;;;;;;;20.15;50.25;99291.78;4946326;28;21485;-76
2023/07/03 01:50:41;;;;;;;8.60;5.10;;;;;;;20.15;50.18;99281.97;4933683;28;20486;-77
2023/07/03 01:53:25;;;;;;;10.47;5.60;;;;;;;20.14;50.27;99277.59;4945473;28;20698;-77
2023/07/03 01:56:30;;;;;;;9.03;6.20;;;;;;;20.13;50.30;99283.13;4946235;28;20488;-77
2023/07/03 01:59:02;;;;;;;9.17;5.20;;;;;;;20.15;50.26;99287.28;4918919;28;20483;-78
2023/07/03 02:01:35;;;;;;;9.20;5.73;;;;;;;20.16;50.31;99286.28;4934755;28;20525;-77
2023/07/03 02:04:07;;;;;;;10.63;5.50;;;;;;;20.19;50.13;99282.44;4944467;28;20495;-77
2023/07/03 02:06:38;;;;;;;10.93;5.30;;;;;;;20.21;50.00;99285.78;4932775;28;20470;-77
2023/07/03 02:09:07;;;;;;;9.13;4.80;;;;;;;20.23;50.27;99283.78;4942353;28;21070;-77
2023/07/03 02:11:36;;;;;;;12.57;7.07;;;;;;;20.24;50.26;99282.78;4942958;28;20472;-77
2023/07/03 02:14:02;;;;;;;9.40;5.80;;;;;;;20.24;50.26;99280.13;4927668;28;20475;-77
2023/07/03 02:16:29;;;;;;;9.27;5.37;;;;;;;20.24;50.37;99283.59;4928083;28;20973;-77
2023/07/03 02:18:56;;;;;;;6.70;5.77;;;;;;;20.23;50.33;99281.94;4922676;28;20507;-77
2023/07/03 02:21:21;;;;;;;14.03;6.80;;;;;;;20.25;50.44;99287.09;4941270;28;20217;-77
2023/07/03 02:23:47;;;;;;;10.43;6.70;;;;;;;20.25;50.22;99284.44;4928043;28;20489;-77
2023/07/03 02:26:14;;;;;;;10.43;6.40;;;;;;;20.26;50.37;99283.44;4943121;28;20529;-77
2023/07/03 02:28:39;;;;;;;10.73;5.50;;;;;;;20.26;50.49;99283.44;4940559;28;20353;-77
2023/07/03 02:31:05;;;;;;;8.37;6.13;;;;;;;20.26;50.63;99289.63;4943996;28;20933;-77
2023/07/03 02:33:30;;;;;;;8.07;5.50;;;;;;;20.25;50.52;99282.63;4924437;28;20479;-77
2023/07/03 02:35:56;;;;;;;9.30;5.87;;;;;;;20.24;50.60;99283.59;4941493;28;20728;-77
2023/07/03 02:38:21;;;;;;;9.27;6.50;;;;;;;20.26;50.59;99280.78;4925637;28;20231;-77
2023/07/03 02:40:47;;;;;;;10.23;6.40;;;;;;;20.25;50.60;99281.78;4938101;28;20612;-77
2023/07/03 02:43:12;;;;;;;9.80;5.30;;;;;;;20.25;50.59;99281.78;4924033;28;20591;-77
2023/07/03 02:45:41;;;;;;;10.47;5.63;;;;;;;20.24;50.67;99277.44;4926858;28;20217;-77
2023/07/03 02:48:10;;;;;;;8.30;5.70;;;;;;;20.24;50.81;99283.59;4930009;28;20481;-77
2023/07/03 02:50:38;;;;;;;10.07;5.83;;;;;;;20.25;50.86;99281.78;4935216;28;20584;-77
2023/07/03 02:53:04;;;;;;;15.17;6.37;;;;;;;20.26;50.79;99278.13;4933342;28;20478;-77
2023/07/03 02:55:31;;;;;;;12.50;6.27;;;;;;;20.25;50.97;99285.28;4930690;28;20285;-77
2023/07/03 02:57:58;;;;;;;9.03;5.43;;;;;;;20.26;50.97;99288.78;4930033;28;20587;-77
2023/07/03 03:00:25;;;;;;;9.63;5.27;;;;;;;20.25;51.07;99281.78;4927150;28;20496;-77
2023/07/03 03:02:50;;;;;;;8.83;5.30;;;;;;;20.21;51.60;99280.44;4942041;28;20444;-77
2023/07/03 03:05:16;;;;;;;7.43;5.77;;;;;;;20.15;52.06;99281.97;4928547;28;20926;-77
2023/07/03 03:07:42;;;;;;;8.33;6.57;;;;;;;20.09;52.34;99280.78;4925296;28;20239;-77
2023/07/03 03:10:08;;;;;;;10.20;6.80;;;;;;;20.05;52.74;99283.94;4943080;28;20485;-77
2023/07/03 03:12:34;;;;;;;13.90;6.40;;;;;;;20.00;52.88;99281.78;4928752;28;20534;-77
2023/07/03 03:14:59;;;;;;;9.83;5.50;;;;;;;19.99;53.27;99285.44;4934915;28;20476;-77
2023/07/03 03:17:25;;;;;;;9.70;5.67;;;;;;;19.97;53.26;99281.28;4943599;28;20847;-77
2023/07/03 03:19:50;;;;;;;11.50;6.27;;;;;;;19.97;53.16;99282.09;4944377;28;20714;-77
2023/07/03 03:22:16;;;;;;;9.03;6.90;;;;;;;19.97;53.20;99275.94;4932710;28;20218;-77
2023/07/03 03:24:41;;;;;;;9.60;6.90;;;;;;;19.95;53.45;99273.44;4931520;28;20534;-77
2023/07/03 03:27:07;;;;;;;8.27;6.00;;;;;;;19.92;53.62;99281.78;4947208;28;20269;-77
2023/07/03 03:29:33;;;;;;;8.57;7.37;;;;;;;19.90;53.60;99275.75;4946936;28;20312;-77
2023/07/03 03:31:59;;;;;;;9.80;6.00;;;;;;;19.91;53.69;99277.44;4931092;28;20489;-77
2023/07/03 03:34:25;;;;;;;10.90;6.17;;;;;;;19.93;53.63;99275.47;4934025;28;20471;-77
2023/07/03 03:36:50;;;;;;;7.90;5.50;;;;;;;19.96;53.36;99277.78;4940736;28;20493;-77
2023/07/03 03:39:16;;;;;;;9.70;5.60;;;;;;;20.00;53.18;99276.44;4928771;28;20220;-77
2023/07/03 03:41:41;;;;;;;11.43;6.77;;;;;;;20.05;52.97;99273.28;4940036;28;20222;-77
2023/07/03 03:44:09;;;;;;;9.17;5.47;;;;;;;20.09;52.82;99272.78;4937834;28;20228;-77
2023/07/03 03:46:34;;;;;;;11.67;5.60;;;;;;;20.10;53.01;99270.97;4932685;28;20559;-77
2023/07/03 03:49:01;;;;;;;14.27;7.70;;;;;;;20.13;52.69;99275.94;4948741;28;20222;-77
2023/07/03 03:51:27;;;;;;;8.60;6.67;;;;;;;20.18;52.52;99278.13;4933380;28;20220;-77
2023/07/03 03:53:53;;;;;;;15.23;6.23;;;;;;;20.20;52.41;99276.09;4948853;28;20543;-77
2023/07/03 03:56:19;;;;;;;15.60;8.30;;;;;;;20.21;52.42;99277.78;4930137;28;20761;-77
2023/07/03 03:58:46;;;;;;;11.23;7.00;;;;;;;20.23;52.32;99278.47;4929792;28;20550;-77
2023/07/03 04:01:12;;;;;;;7.50;5.30;;;;;;;20.24;52.12;99290.78;4931849;28;20470;-77
2023/07/03 04:03:37;;;;;;;10.93;6.10;;;;;;;20.25;52.10;99281.78;4949973;28;20782;-77
2023/07/03 04:06:03;;;;;;;11.73;6.43;;;;;;;20.28;52.24;99282.28;4944493;28;20488;-77
2023/07/03 04:08:29;;;;;;;10.80;6.10;;;;;;;20.31;52.04;99281.94;4948362;28;20250;-77
2023/07/03 04:10:54;;;;;;;10.27;6.80;;;;;;;20.33;51.91;99285.28;4947060;28;20790;-77
2023/07/03 04:13:20;;;;;;;14.40;6.37;;;;;;;20.34;51.89;99283.44;4947860;28;20221;-77
2023/07/03 04:15:52;;;;;;;13.50;6.57;;;;;;;20.34;51.79;99283.44;4946982;28;20722;-77
2023/07/03 04:18:20;;;;;;;16.50;6.67;;;;;;;20.33;51.70;99282.63;4945309;28;20306;-77
2023/07/03 04:20:46;;;;;;;9.20;7.00;;;;;;;20.34;51.50;99278.94;4947473;28;20489;-77
2023/07/03 04:23:12;;;;;;;7.53;6.70;;;;;;;20.36;51.60;99289.44;4946150;28;20478;-77
2023/07/03 04:25:38;;;;;;;12.83;5.07;;;;;;;20.38;51.47;99292.75;4946395;28;20501;-77
2023/07/03 04:28:03;;;;;;;12.73;5.93;;;;;;;20.39;51.30;99291.78;4948137;28;20266;-77
2023/07/03 04:30:29;;;;;;;10.33;6.07;;;;;;;20.40;51.31;99288.09;4944828;28;20783;-77
2023/07/03 04:32:54;;;;;;;10.53;6.63;;;;;;;20.41;51.29;99284.41;4948354;28;20302;-77
2023/07/03 04:35:21;;;;;;;9.68;6.07;;;;;;;20.43;51.21;99287.75;4944586;28;20593;-77
2023/07/03 04:37:46;;;;;;;9.57;5.30;;;;;;;20.45;51.34;99295.59;4946180;28;20730;-77
2023/07/03 04:40:12;;;;;;;9.40;5.30;;;;;;;20.47;51.08;99299.78;4945827;28;20504;-77
2023/07/03 04:42:38;;;;;;;9.10;5.93;;;;;;;20.51;51.15;99295.75;4938790;28;20680;-77
2023/07/03 04:45:06;;;;;;;9.53;5.23;;;;;;;20.52;51.22;99292.09;4944426;28;20318;-77
2023/07/03 04:47:31;;;;;;;16.73;7.00;;;;;;;20.53;51.06;99300.94;4946582;28;20227;-77
2023/07/03 04:49:58;;;;;;;12.00;5.30;;;;;;;20.53;51.03;99299.13;4943002;28;20553;-78
2023/07/03 04:52:27;;;;;;;7.93;4.80;;;;;;;20.54;51.04;99306.09;4947001;28;21474;-77
2023/07/03 04:54:53;;;;;;;6.20;5.03;;;;;;;20.55;51.16;99307.78;4948066;28;20646;-77
2023/07/03 04:57:19;;;;;;;10.97;6.97;;;;;;;20.55;51.18;99313.13;4930126;28;21410;-77
2023/07/03 04:59:45;;;;;;;6.60;4.97;;;;;;;20.56;51.24;99311.28;4948258;28;20580;-77
2023/07/03 05:02:12;;;;;;;12.00;6.33;;;;;;;20.54;51.40;99305.28;4940085;28;20451;-77
2023/07/03 05:04:38;;;;;;;9.07;6.60;;;;;;;20.54;51.51;99313.28;4948963;28;20258;-77
2023/07/03 05:07:03;;;;;;;8.53;5.47;;;;;;;20.55;51.51;99312.31;4950128;28;20649;-77
2023/07/03 05:09:29;;;;;;;12.07;6.27;;;;;;;20.54;51.42;99306.09;4949100;28;20244;-77
2023/07/03 05:11:55;;;;;;;11.30;5.77;;;;;;;20.54;51.65;99305.28;4945063;28;20283;-77
2023/07/03 05:14:20;;;;;;;8.83;4.70;;;;;;;20.55;51.40;99313.13;4945404;28;20478;-77
2023/07/03 05:16:45;;;;;;;9.57;5.90;;;;;;;20.57;51.55;99310.28;4949509;28;21359;-77
2023/07/03 05:19:13;;;;;;;11.00;5.33;;;;;;;20.59;51.44;99307.44;4946698;28;20312;-76
2023/07/03 05:21:38;;;;;;;9.03;6.47;;;;;;;20.60;51.57;99309.94;4943923;28;21117;-77
2023/07/03 05:24:04;;;;;;;9.20;6.37;;;;;;;20.61;51.46;99310.78;4945487;28;20499;-77
2023/07/03 05:26:30;;;;;;;10.20;5.80;;;;;;;20.61;51.58;99316.97;4949925;28;20225;-77
2023/07/03 05:28:55;;;;;;;8.43;6.20;;;;;;;20.63;51.49;99316.78;4947840;28;20760;-78
2023/07/03 05:31:23;;;;;;;8.90;4.67;;;;;;;20.64;51.53;99311.28;4943694;28;20227;-76
2023/07/03 05:33:49;;;;;;;19.17;8.60;;;;;;;20.68;51.56;99314.44;4947981;28;20325;-76
2023/07/03 05:36:15;;;;;;;8.00;5.57;;;;;;;20.71;51.60;99316.75;4946088;28;20490;-77
2023/07/03 05:38:40;;;;;;;9.63;6.27;;;;;;;20.73;51.64;99318.25;4945058;28;20252;-77
2023/07/03 05:41:06;;;;;;;14.13;5.80;;;;;;;20.77;51.57;99324.09;4948290;28;20241;-77
2023/07/03 05:43:32;;;;;;;8.40;5.73;;;;;;;20.79;51.40;99322.06;4945046;28;20218;-77
2023/07/03 05:45:57;;;;;;;7.70;5.00;;;;;;;20.82;51.26;99320.91;4944695;28;20223;-77
2023/07/03 05:48:23;;;;;;;7.53;5.80;;;;;;;20.83;51.26;99326.09;4948757;28;20235;-78
2023/07/03 05:50:48;;;;;;;11.90;6.33;;;;;;;20.85;51.26;99332.09;4944924;28;20226;-77
2023/07/03 05:53:14;;;;;;;7.17;5.63;;;;;;;20.86;51.18;99320.41;4941159;28;20475;-77
2023/07/03 05:55:40;;;;;;;10.00;5.27;;;;;;;20.89;50.98;99325.41;4944921;28;20243;-77
2023/07/03 05:58:05;;;;;;;5.30;4.57;;;;;;;20.90;50.91;99327.09;4946888;28;20232;-77
2023/07/03 06:00:31;;;;;;;9.67;6.27;;;;;;;20.95;50.95;99329.22;4946441;28;20231;-77
2023/07/03 06:02:56;;;;;;;8.67;5.10;;;;;;;20.98;50.59;99329.72;4946844;28;20707;-77
2023/07/03 06:05:22;;;;;;;9.10;4.90;;;;;;;21.04;50.80;99322.03;4948774;28;20222;-78
2023/07/03 06:07:48;;;;;;;8.10;5.10;;;;;;;21.09;50.51;99327.66;4944618;28;20228;-77
2023/07/03 06:10:13;;;;;;;9.40;5.63;;;;;;;21.13;50.51;99329.00;4946224;28;20278;-77
2023/07/03 06:12:40;;;;;;;7.80;5.40;;;;;;;21.18;50.50;99334.66;4947160;28;20228;-77
2023/07/03 06:15:06;;;;;;;10.70;6.10;;;;;;;21.24;50.43;99344.66;4941200;28;20221;-77
2023/07/03 06:17:32;;;;;;;12.90;5.80;;;;;;;21.30;50.05;99343.13;4943869;28;20677;-77
2023/07/03 06:19:57;;;;;;;9.53;5.60;;;;;;;21.37;50.07;99344.09;4944106;28;20497;-78
2023/07/03 06:22:23;;;;;;;9.10;5.23;;;;;;;21.42;49.93;99345.28;4944103;28;20454;-77
2023/07/03 06:24:49;;;;;;;7.00;5.37;;;;;;;21.48;49.61;99345.59;4943527;28;20685;-77
2023/07/03 06:27:14;;;;;;;8.90;5.60;;;;;;;21.54;49.70;99350.22;4944919;28;20467;-77
2023/07/03 06:29:40;;;;;;;12.00;6.00;;;;;;;21.58;49.58;99347.03;4945169;28;20260;-77
2023/07/03 06:32:08;;;;;;;7.30;5.30;;;;;;;21.63;49.24;99349.19;4947114;28;20212;-77
2023/07/03 06:34:34;;;;;;;6.47;5.07;;;;;;;21.69;49.25;99355.69;4942577;28;20489;-77
2023/07/03 06:37:00;;;;;;;9.63;5.83;;;;;;;21.76;49.44;99353.97;4942465;28;20501;-77
2023/07/03 06:39:27;;;;;;;11.43;6.20;;;;;;;21.81;49.04;99360.44;4941743;28;20255;-76
2023/07/03 06:41:52;;;;;;;9.00;5.60;;;;;;;21.84;49.41;99354.72;4944799;28;20515;-77
2023/07/03 06:45:08;;;;;;;13.20;7.27;;;;;;;21.88;49.20;99360.59;4992780;23;20499;-92
2023/07/03 06:52:07;;;;;;;;;;;;;;;;;;;;;
2023/07/03 06:59:29;;;;;;;;;;;;;;;;;;;;;
2023/07/03 07:02:48;;;;;;;;;;;;;;;;;;;;;
2023/07/03 07:12:29;;;;;;;;;;;;;;;;;;;;;
2023/07/03 07:20:05;;;;;;;;;;;;;;;;;;;;;
2023/07/03 07:26:39;;;;;;;;;;;;;;;;;;;;;
2023/07/03 07:30:09;;;;;;;12.87;5.80;;;;;;;24.43;42.64;99340.66;4918728;28;20455;-92
2023/07/03 07:36:44;;;;;;;;;;;;;;;;;;;;;
2023/07/03 07:39:23;;;;;;;;;;;;;;;;;;;;;
2023/07/03 07:42:11;;;;;;;11.97;5.97;;;;;;;25.59;39.93;99333.75;4951020;28;20493;-89
2023/07/03 07:45:21;;;;;;;;;;;;;;;;;;;;;
2023/07/03 07:48:08;;;;;;;11.93;5.47;;;;;;;26.07;39.01;99351.72;4947524;28;20487;-91
2023/07/03 07:51:13;;;;;;;13.50;5.60;;;;;;;26.36;38.31;99344.31;4944250;28;20472;-91
2023/07/03 07:57:42;;;;;;;6.70;4.83;;;;;;;27.36;36.52;99340.47;4915169;28;20504;-91
2023/07/03 08:00:58;;;;;;;9.70;5.90;;;;;;;27.57;35.82;99346.59;4952814;28;20498;-90
2023/07/03 08:04:16;;;;;;;;;;;;;;;;;;;;;
2023/07/03 08:11:28;;;;;;;;;;;;;;;;;;;;;
2023/07/03 08:14:37;;;;;;;11.03;5.93;;;;;;;27.56;35.18;99345.78;4839658;29;20496;-92
2023/07/03 08:18:24;;;;;;;;;;;;;;;;;;;;;
2023/07/03 08:28:17;;;;;;;8.00;4.97;;;;;;;27.39;33.67;99354.59;4857226;29;20552;-91
2023/07/03 08:31:32;;;;;;;;;;;;;;;;;;;;;
2023/07/03 08:35:02;;;;;;;;;;;;;;;;;;;;;
2023/07/03 08:41:39;;;;;;;;;;;;;;;;;;;;;
2023/07/03 08:44:51;;;;;;;9.67;6.60;;;;;;;27.19;32.99;99357.31;4954545;28;20493;-92
2023/07/03 08:48:17;;;;;;;;;;;;;;;;;;;;;
2023/07/03 08:51:56;;;;;;;;;;;;;;;;;;;;;
2023/07/03 08:55:54;;;;;;;;;;;;;;;;;;;;;
2023/07/03 08:58:55;;;;;;;13.45;6.10;;;;;;;28.19;31.04;99346.91;4943631;28;20450;-92
2023/07/03 09:14:23;;;;;;;;;;;;;;;;;;;;;
2023/07/03 09:17:26;;;;;;;;;;;;;;;;;;;;;
2023/07/03 09:31:58;;;;;;;;;;;;;;;;;;;;;
2023/07/03 09:39:39;;;;;;;4.70;3.67;;;;;;;28.79;29.75;99339.16;4746657;29;20541;-92
2023/07/03 09:42:38;;;;;;;;;;;;;;;;;;;;;
2023/07/03 09:46:24;;;;;;;;;;;;;;;;;;;;;
2023/07/03 10:00:09;;;;;;;;;;;;;;;;;;;;;
2023/07/03 10:14:08;;;;;;;;;;;;;;;;;;;;;
2023/07/03 10:20:25;;;;;;;;;;;;;;;;;;;;;
2023/07/03 10:31:45;;;;;;;7.50;3.53;;;;;;;28.33;29.87;99348.47;4828683;29;20530;-93
2023/07/03 10:35:13;;;;;;;;;;;;;;;;;;;;;
2023/07/03 10:49:56;;;;;;;;;;;;;;;;;;;;;
2023/07/03 10:52:56;;;;;;;;;;;;;;;;;;;;;
2023/07/03 11:00:05;;;;;;;;;;;;;;;;;;;;;
2023/07/03 11:14:55;;;;;;;;;;;;;;;;;;;;;
2023/07/03 11:18:53;;;;;;;;;;;;;;;;;;;;;
2023/07/03 11:22:03;;;;;;;;;;;;;;;;;;;;;
2023/07/03 11:34:10;;;;;;;;;;;;;;;;;;;;;
2023/07/03 11:37:52;;;;;;;;;;;;;;;;;;;;;
2023/07/03 11:40:54;;;;;;;5.30;2.83;;;;;;;28.30;29.44;99312.97;4893077;23;20510;-79
2023/07/03 11:43:28;;;;;;;7.23;2.50;;;;;;;28.29;28.91;99316.72;4964290;28;20889;-80
2023/07/03 11:45:56;;;;;;;3.03;2.53;;;;;;;28.26;29.07;99317.97;4969482;28;20556;-80
2023/07/03 11:48:38;;;;;;;5.03;3.30;;;;;;;28.28;29.34;99312.38;4955445;28;20494;-82
2023/07/03 11:51:07;;;;;;;3.87;2.60;;;;;;;28.34;28.64;99316.88;4946284;28;20589;-81
2023/07/03 11:53:44;;;;;;;5.10;3.50;;;;;;;28.33;28.91;99316.06;4952057;28;20773;-80
2023/07/03 11:56:32;;;;;;;8.43;3.33;;;;;;;28.31;29.04;99309.22;4949589;28;20495;-79
2023/07/03 11:59:09;;;;;;;4.30;2.70;;;;;;;28.35;29.07;99310.44;4941328;28;20480;-82
2023/07/03 12:01:36;;;;;;;5.00;2.40;;;;;;;28.45;28.95;99308.91;4947138;28;20524;-81
2023/07/03 12:04:09;;;;;;;5.00;2.70;;;;;;;28.60;28.84;99313.16;4948998;28;20540;-79
2023/07/03 12:06:40;;;;;;;4.77;2.60;;;;;;;28.80;28.38;99312.97;4950741;28;20470;-81
2023/07/03 12:09:22;;;;;;;4.43;2.70;;;;;;;28.88;28.19;99308.09;4928555;28;20827;-78
2023/07/03 12:12:00;;;;;;;6.80;2.97;;;;;;;28.88;28.34;99305.38;4948833;28;21286;-77
2023/07/03 12:14:52;;;;;;;4.80;3.50;;;;;;;28.81;28.36;99310.06;4950311;28;20475;-78
2023/07/03 12:17:34;;;;;;;3.97;2.77;;;;;;;28.72;28.03;99314.06;4953605;28;20947;-78
2023/07/03 12:20:08;;;;;;;5.43;3.60;;;;;;;28.67;28.32;99312.03;4947665;28;20484;-79
2023/07/03 12:22:44;;;;;;;10.30;2.87;;;;;;;28.61;28.68;99321.03;4951824;28;20476;-81
2023/07/03 12:25:22;;;;;;;5.27;2.57;;;;;;;28.60;28.81;99308.59;4949905;28;20465;-82
2023/07/03 12:27:49;;;;;;;4.10;2.87;;;;;;;28.67;28.86;99319.31;4950978;28;20836;-78
2023/07/03 12:30:30;;;;;;;5.70;2.90;;;;;;;28.71;28.65;99317.00;4948753;28;20574;-81
2023/07/03 12:32:57;;;;;;;6.30;3.93;;;;;;;28.66;28.70;99317.69;4946935;28;20468;-79
2023/07/03 12:35:30;;;;;;;2.63;2.40;;;;;;;28.64;28.64;99314.34;4947036;28;20919;-82
2023/07/03 12:38:00;;;;;;;5.17;3.17;;;;;;;28.71;28.77;99323.25;4948960;28;20955;-81
2023/07/03 12:40:26;;;;;;;6.20;3.73;;;;;;;28.86;28.46;99303.94;4949224;28;20474;-79
2023/07/03 12:42:54;;;;;;;5.20;3.40;;;;;;;29.11;28.48;99299.34;4949476;28;20993;-80
2023/07/03 12:45:23;;;;;;;4.83;2.80;;;;;;;29.32;28.22;99316.16;4946787;28;20557;-81
2023/07/03 12:48:07;;;;;;;2.60;2.20;;;;;;;29.43;27.75;99312.66;4952206;28;21084;-79
2023/07/03 12:50:55;;;;;;;6.70;2.50;;;;;;;29.51;27.07;99306.94;4952425;28;21124;-79
2023/07/03 12:53:22;;;;;;;5.20;3.23;;;;;;;29.50;27.73;99299.06;4950270;28;20478;-81
2023/07/03 12:55:55;;;;;;;5.97;2.70;;;;;;;29.30;27.34;99293.91;4952140;28;20480;-82
2023/07/03 12:58:24;;;;;;;6.63;5.37;;;;;;;29.11;27.90;99306.59;4949915;28;20483;-80
2023/07/03 13:01:01;;;;;;;11.03;5.13;;;;;;;28.97;28.07;99296.97;4945908;28;20848;-79
2023/07/03 13:03:26;;;;;;;6.00;3.00;;;;;;;28.84;28.22;99303.34;4941707;28;20537;-79
2023/07/03 13:05:52;;;;;;;5.53;3.20;;;;;;;28.72;28.33;99300.56;4952513;28;20478;-81
2023/07/03 13:08:18;;;;;;;5.37;3.30;;;;;;;28.62;28.54;99297.53;4953348;28;20556;-79
2023/07/03 13:10:57;;;;;;;5.10;3.93;;;;;;;28.61;28.79;99304.81;4951348;28;20282;-81
2023/07/03 13:13:22;;;;;;;3.80;2.43;;;;;;;28.64;29.02;99292.75;4949793;28;20216;-83
2023/07/03 13:15:47;;;;;;;3.40;2.20;;;;;;;28.78;28.81;99298.84;4954346;28;20560;-80
2023/07/03 13:18:13;;;;;;;3.30;2.57;;;;;;;28.87;28.55;99302.91;4950576;28;20318;-79
2023/07/03 13:20:40;;;;;;;3.33;2.70;;;;;;;28.87;28.43;99298.34;4951669;28;20219;-80
2023/07/03 13:23:09;;;;;;;5.70;2.67;;;;;;;28.77;28.49;99292.59;4948376;28;20527;-82
2023/07/03 13:25:47;;;;;;;4.10;3.13;;;;;;;28.66;28.70;99285.25;4946475;28;20475;-79
2023/07/03 13:28:40;;;;;;;3.87;2.47;;;;;;;28.54;28.61;99287.84;4950511;28;22921;-77
2023/07/03 13:31:11;;;;;;;5.47;3.40;;;;;;;28.46;28.90;99290.81;4946265;28;20580;-77
2023/07/03 13:33:38;;;;;;;5.50;3.57;;;;;;;28.36;28.97;99285.91;4950477;28;20484;-76
2023/07/03 13:36:25;;;;;;;7.40;2.67;;;;;;;28.24;29.07;99296.59;4947092;28;20516;-76
2023/07/03 13:39:12;;;;;;;4.72;2.75;;;;;;;28.17;29.65;99282.31;4951398;28;20445;-77
2023/07/03 13:41:39;;;;;;;3.53;2.33;;;;;;;28.07;29.59;99275.75;4949323;28;20241;-78
2023/07/03 13:44:10;;;;;;;6.50;2.70;;;;;;;27.93;29.73;99286.66;4952365;28;20561;-76
2023/07/03 13:46:37;;;;;;;5.50;2.77;;;;;;;27.92;29.90;99279.63;4952132;28;21007;-77
2023/07/03 13:49:04;;;;;;;3.50;1.97;;;;;;;28.07;29.87;99283.84;4953514;28;20459;-77
2023/07/03 13:51:29;;;;;;;6.60;2.80;;;;;;;28.24;29.78;99266.06;4951796;28;20502;-77
2023/07/03 13:53:56;;;;;;;5.50;2.90;;;;;;;28.28;29.39;99261.06;4954315;28;20475;-77
2023/07/03 13:56:22;;;;;;;2.50;1.97;;;;;;;28.39;29.43;99271.94;4953961;28;20232;-77
2023/07/03 13:58:47;;;;;;;6.73;2.70;;;;;;;28.50;29.29;99270.44;4949990;28;20467;-76
2023/07/03 14:01:13;;;;;;;5.93;2.93;;;;;;;28.55;29.19;99272.47;4951051;28;20844;-77
2023/07/03 14:03:39;;;;;;;4.70;2.10;;;;;;;28.55;29.21;99280.56;4944747;28;20251;-79
2023/07/03 14:06:08;;;;;;;3.87;3.27;;;;;;;28.48;29.41;99277.91;4952693;28;20223;-76
2023/07/03 14:08:33;;;;;;;4.40;2.00;;;;;;;28.36;29.28;99279.69;4947111;28;20731;-80
2023/07/03 14:10:59;;;;;;;3.87;2.17;;;;;;;28.29;29.40;99276.19;4954243;28;21438;-79
2023/07/03 14:13:24;;;;;;;4.13;2.10;;;;;;;28.33;29.20;99274.72;4952302;28;20585;-80
2023/07/03 14:15:49;;;;;;;3.60;1.93;;;;;;;28.39;29.32;99274.66;4951908;28;20943;-79
2023/07/03 14:18:17;;;;;;;3.20;2.77;;;;;;;28.45;28.87;99273.78;4951368;28;20259;-77
2023/07/03 14:20:44;;;;;;;5.33;2.53;;;;;;;28.58;29.04;99274.72;4955768;28;20310;-78
2023/07/03 14:23:10;;;;;;;3.57;2.10;;;;;;;28.71;29.08;99266.47;4955333;28;20458;-79
2023/07/03 14:25:36;;;;;;;4.80;2.37;;;;;;;28.79;28.84;99263.47;4952409;28;20903;-79
2023/07/03 14:28:01;;;;;;;2.13;1.80;;;;;;;28.85;28.62;99257.16;4958001;28;20719;-82
2023/07/03 14:30:27;;;;;;;3.30;2.63;;;;;;;28.90;28.82;99262.72;4956169;28;20224;-77
2023/07/03 14:32:52;;;;;;;2.73;1.87;;;;;;;28.94;28.80;99264.97;4954815;28;20258;-74
2023/07/03 14:35:18;;;;;;;2.47;1.80;;;;;;;28.90;28.36;99257.31;4948126;28;20645;-76
2023/07/03 14:37:43;;;;;;;2.83;1.53;;;;;;;28.85;28.40;99251.75;4949208;28;20352;-76
2023/07/03 14:40:11;;;;;;;2.77;1.90;;;;;;;28.84;28.47;99243.88;4944277;28;22905;-77
2023/07/03 14:42:36;;;;;;;4.20;1.90;;;;;;;28.85;28.30;99246.34;4946399;28;20247;-75
2023/07/03 14:45:02;;;;;;;2.20;1.50;;;;;;;28.89;28.09;99247.56;4953558;28;20459;-77
2023/07/03 14:47:27;;;;;;;3.70;1.67;;;;;;;28.90;28.13;99238.41;4950868;28;20231;-78
2023/07/03 14:49:53;;;;;;;2.90;2.13;;;;;;;28.95;27.92;99243.13;4951158;28;20225;-77
2023/07/03 14:52:19;;;;;;;4.70;1.67;;;;;;;29.05;27.82;99237.22;4949475;28;20218;-79
2023/07/03 14:54:46;;;;;;;4.63;2.00;;;;;;;29.12;27.50;99237.97;4947075;28;20219;-79
2023/07/03 14:57:12;;;;;;;2.00;1.80;;;;;;;29.18;27.52;99241.63;4949638;28;20503;-77
2023/07/03 14:59:37;;;;;;;2.17;1.90;;;;;;;29.17;27.36;99232.69;4953192;28;20475;-78
2023/07/03 15:02:03;;;;;;;2.20;1.60;;;;;;;29.17;27.62;99221.88;4953090;28;20214;-78
2023/07/03 15:04:28;;;;;;;2.73;2.20;;;;;;;29.21;27.89;99223.06;4953563;28;20215;-78
2023/07/03 15:06:53;;;;;;;3.03;2.33;;;;;;;29.28;27.72;99231.91;4955860;28;20467;-76
2023/07/03 15:09:19;;;;;;;2.40;1.43;;;;;;;29.29;27.65;99228.16;4959182;28;20232;-77
2023/07/03 15:11:44;;;;;;;1.60;1.40;;;;;;;29.21;27.56;99216.81;4959994;28;20222;-77
2023/07/03 15:14:10;;;;;;;2.20;1.60;;;;;;;29.15;27.54;99218.56;4958252;28;20214;-78
2023/07/03 15:16:35;;;;;;;2.43;1.43;;;;;;;29.13;27.73;99222.56;4960280;28;20247;-79
2023/07/03 15:19:06;;;;;;;3.70;1.87;;;;;;;29.13;27.76;99203.63;4959389;28;20241;-78